Gulbeniz A — TCZK8 — position and weather

sailwx.info

Track history (hours):
 
Tides and Currents Weather Stations Pressure Air Temp Water Temp Dewpoint Dewpoint Depression Visibility Wind Speed Wind Dir Waves Ship Positions

Gulbeniz A

Last reported at 2017-Dec-11 09:52 UTC. Time now 2017-Dec-12 15:55 UTC.
Position N 37°47' E 016°03'.

Length 210 m; draft 10.2 m.

Type: Ship (hazmat cat A). MMSI: 271042493.

Date/timePositionNaut miles runAvg speedWind from/ knotsBaromVisibWave heightAir tempDewpointWater temp
2017-Dec-11 09:52N 37°47' E 016°03'1410.6
2017-Dec-11 08:35N 37°50' E 015°46'110.7
2017-Dec-11 08:30N 37°51' E 015°45'813.1
2017-Dec-11 07:53N 37°55' E 015°36'614.6
2017-Dec-11 07:30N 38°00' E 015°34'714.2
2017-Dec-11 07:00N 38°07' E 015°34'714.8
2017-Dec-11 06:30N 38°14' E 015°37'611.1
2017-Dec-11 06:00N 38°20' E 015°39'816.8
2017-Dec-11 05:30N 38°26' E 015°31'917.1
2017-Dec-11 05:00N 38°32' E 015°24'917.1
2017-Dec-11 04:29N 38°38' E 015°16'817.1
2017-Dec-11 04:00N 38°44' E 015°08'1017.2
2017-Dec-11 03:27N 38°49' E 014°58'52116.8
2017-Dec-09 20:30N 43°10' E 005°01'817.0
2017-Dec-09 20:00N 43°19' E 004°59'510.3
2017-Dec-09 19:31N 43°23' E 004°56'5 9.3
2017-Dec-09 19:00N 43°25' E 004°50'0 0.0
2017-Dec-09 18:28N 43°25' E 004°50'0 0.0
2017-Dec-09 17:58N 43°25' E 004°50'0 0.0
2017-Dec-09 17:28N 43°25' E 004°50'0 0.0
2017-Dec-09 16:58N 43°25' E 004°50'0 0.0
2017-Dec-09 16:28N 43°25' E 004°50'0 0.0
2017-Dec-09 15:58N 43°25' E 004°50'0 0.0
2017-Dec-09 15:28N 43°25' E 004°50'0 0.0
2017-Dec-09 14:58N 43°25' E 004°50'0 0.0
2017-Dec-09 14:28N 43°25' E 004°50'0 0.0
2017-Dec-09 13:58N 43°25' E 004°50'0 0.0
2017-Dec-09 13:28N 43°25' E 004°50'0 0.0
2017-Dec-09 12:58N 43°25' E 004°50'0 0.0
2017-Dec-09 12:28N 43°25' E 004°50'0 0.0
2017-Dec-09 11:58N 43°25' E 004°50'0 0.0
2017-Dec-09 11:28N 43°25' E 004°50'0 0.0
2017-Dec-09 10:58N 43°25' E 004°50'0 0.0
2017-Dec-09 10:28N 43°25' E 004°50'0 0.0
2017-Dec-09 09:58N 43°25' E 004°50'0 0.0
2017-Dec-09 09:28N 43°25' E 004°50'0 0.0
2017-Dec-09 08:58N 43°25' E 004°50'0 0.0
2017-Dec-09 08:28N 43°25' E 004°50'0 0.0
2017-Dec-09 07:58N 43°25' E 004°50'0 0.0
2017-Dec-09 07:28N 43°25' E 004°50'0 0.0
2017-Dec-09 06:58N 43°25' E 004°50'0 0.0
2017-Dec-09 06:28N 43°25' E 004°50'0 0.0
2017-Dec-09 05:58N 43°25' E 004°50'0 0.0
2017-Dec-09 05:28N 43°25' E 004°50'0 0.0
2017-Dec-09 04:58N 43°25' E 004°50'0 0.0
2017-Dec-09 04:29N 43°25' E 004°50'0 0.0
2017-Dec-09 04:01N 43°25' E 004°50'0 0.3
2017-Dec-09 03:31N 43°25' E 004°50'2 3.1
2017-Dec-09 03:00N 43°24' E 004°52'5 9.1
2017-Dec-09 02:30N 43°22' E 004°58'4 8.3
2017-Dec-09 02:00N 43°18' E 004°60'510.3
2017-Dec-09 01:30N 43°14' E 005°02'4 8.3
2017-Dec-09 01:00N 43°09' E 005°01'5 9.6
2017-Dec-09 00:30N 43°06' E 004°57'6 9.6
2017-Dec-08 23:54N 43°02' E 004°51'159 9.0
2017-Dec-08 06:10N 41°15' E 002°11'310.2
2017-Dec-08 05:55N 41°18' E 002°10'0 0.0
2017-Dec-07 13:09N 41°18' E 002°11'1910.5
2017-Dec-07 11:19N 41°02' E 001°57'514.7
2017-Dec-07 10:57N 40°58' E 001°52'  
2017-Dec-01 18:21N 37°38' W 000°26'3 9.7
2017-Dec-01 18:00N 37°35' W 000°29'510.9
2017-Dec-01 17:30N 37°31' W 000°33'711.0
2017-Dec-01 16:52N 37°27' W 000°40'411.2
2017-Dec-01 16:30N 37°24' W 000°43'611.3
2017-Dec-01 16:00N 37°20' W 000°49'611.3
2017-Dec-01 15:29N 37°16' W 000°54'611.2
2017-Dec-01 14:57N 37°12' W 000°59'  
Track history (hours):
 
Tides and Currents Weather Stations Pressure Air Temp Water Temp Dewpoint Dewpoint Depression Visibility Wind Speed Wind Dir Waves Ship Positions

Gulbeniz A

Last reported at 2017-Dec-11 09:52 UTC. Time now 2017-Dec-12 15:55 UTC.
Position N 37°47' E 016°03'.

Length 210 m; draft 10.2 m.

Type: Ship (hazmat cat A). MMSI: 271042493.

Date/timePositionNaut miles runAvg speedWind from/ knotsBaromVisibWave heightAir tempDewpointWater temp
2017-Dec-11 09:52N 37°47' E 016°03'1410.6
2017-Dec-11 08:35N 37°50' E 015°46'110.7
2017-Dec-11 08:30N 37°51' E 015°45'813.1
2017-Dec-11 07:53N 37°55' E 015°36'614.6
2017-Dec-11 07:30N 38°00' E 015°34'714.2
2017-Dec-11 07:00N 38°07' E 015°34'714.8
2017-Dec-11 06:30N 38°14' E 015°37'611.1
2017-Dec-11 06:00N 38°20' E 015°39'816.8
2017-Dec-11 05:30N 38°26' E 015°31'917.1
2017-Dec-11 05:00N 38°32' E 015°24'917.1
2017-Dec-11 04:29N 38°38' E 015°16'817.1
2017-Dec-11 04:00N 38°44' E 015°08'1017.2
2017-Dec-11 03:27N 38°49' E 014°58'52116.8
2017-Dec-09 20:30N 43°10' E 005°01'817.0
2017-Dec-09 20:00N 43°19' E 004°59'510.3
2017-Dec-09 19:31N 43°23' E 004°56'5 9.3
2017-Dec-09 19:00N 43°25' E 004°50'0 0.0
2017-Dec-09 18:28N 43°25' E 004°50'0 0.0
2017-Dec-09 17:58N 43°25' E 004°50'0 0.0
2017-Dec-09 17:28N 43°25' E 004°50'0 0.0
2017-Dec-09 16:58N 43°25' E 004°50'0 0.0
2017-Dec-09 16:28N 43°25' E 004°50'0 0.0
2017-Dec-09 15:58N 43°25' E 004°50'0 0.0
2017-Dec-09 15:28N 43°25' E 004°50'0 0.0
2017-Dec-09 14:58N 43°25' E 004°50'0 0.0
2017-Dec-09 14:28N 43°25' E 004°50'0 0.0
2017-Dec-09 13:58N 43°25' E 004°50'0 0.0
2017-Dec-09 13:28N 43°25' E 004°50'0 0.0
2017-Dec-09 12:58N 43°25' E 004°50'0 0.0
2017-Dec-09 12:28N 43°25' E 004°50'0 0.0
2017-Dec-09 11:58N 43°25' E 004°50'0 0.0
2017-Dec-09 11:28N 43°25' E 004°50'0 0.0
2017-Dec-09 10:58N 43°25' E 004°50'0 0.0
2017-Dec-09 10:28N 43°25' E 004°50'0 0.0
2017-Dec-09 09:58N 43°25' E 004°50'0 0.0
2017-Dec-09 09:28N 43°25' E 004°50'0 0.0
2017-Dec-09 08:58N 43°25' E 004°50'0 0.0
2017-Dec-09 08:28N 43°25' E 004°50'0 0.0
2017-Dec-09 07:58N 43°25' E 004°50'0 0.0
2017-Dec-09 07:28N 43°25' E 004°50'0 0.0
2017-Dec-09 06:58N 43°25' E 004°50'0 0.0
2017-Dec-09 06:28N 43°25' E 004°50'0 0.0
2017-Dec-09 05:58N 43°25' E 004°50'0 0.0
2017-Dec-09 05:28N 43°25' E 004°50'0 0.0
2017-Dec-09 04:58N 43°25' E 004°50'0 0.0
2017-Dec-09 04:29N 43°25' E 004°50'0 0.0
2017-Dec-09 04:01N 43°25' E 004°50'0 0.3
2017-Dec-09 03:31N 43°25' E 004°50'2 3.1
2017-Dec-09 03:00N 43°24' E 004°52'5 9.1
2017-Dec-09 02:30N 43°22' E 004°58'4 8.3
2017-Dec-09 02:00N 43°18' E 004°60'510.3
2017-Dec-09 01:30N 43°14' E 005°02'4 8.3
2017-Dec-09 01:00N 43°09' E 005°01'5 9.6
2017-Dec-09 00:30N 43°06' E 004°57'6 9.6
2017-Dec-08 23:54N 43°02' E 004°51'159 9.0
2017-Dec-08 06:10N 41°15' E 002°11'310.2
2017-Dec-08 05:55N 41°18' E 002°10'0 0.0
2017-Dec-07 13:09N 41°18' E 002°11'1910.5
2017-Dec-07 11:19N 41°02' E 001°57'514.7
2017-Dec-07 10:57N 40°58' E 001°52'  
2017-Dec-01 18:21N 37°38' W 000°26'3 9.7
2017-Dec-01 18:00N 37°35' W 000°29'510.9
2017-Dec-01 17:30N 37°31' W 000°33'711.0
2017-Dec-01 16:52N 37°27' W 000°40'411.2
2017-Dec-01 16:30N 37°24' W 000°43'611.3
2017-Dec-01 16:00N 37°20' W 000°49'611.3
2017-Dec-01 15:29N 37°16' W 000°54'611.2
2017-Dec-01 14:57N 37°12' W 000°59'  

Dump ship's entire track history